sensor_id;sensor_type;location;lat;lon;timestamp;P1;durP1;ratioP1;P2;durP2;ratioP2
48002;SDS011;33768;48.578;11.574;2022-09-09T00:06:14;4.50;;;1.87;;
48002;SDS011;33768;48.578;11.574;2022-09-09T00:09:27;2.70;;;1.70;;
48002;SDS011;33768;48.578;11.574;2022-09-09T00:15:55;2.90;;;1.40;;
48002;SDS011;33768;48.578;11.574;2022-09-09T00:19:06;2.90;;;1.63;;
48002;SDS011;33768;48.578;11.574;2022-09-09T00:22:17;6.77;;;1.63;;
48002;SDS011;33768;48.578;11.574;2022-09-09T00:25:28;4.87;;;1.80;;
48002;SDS011;33768;48.578;11.574;2022-09-09T00:28:43;1.87;;;1.53;;
48002;SDS011;33768;48.578;11.574;2022-09-09T00:31:55;2.57;;;1.50;;
48002;SDS011;33768;48.578;11.574;2022-09-09T00:35:11;5.63;;;1.80;;
48002;SDS011;33768;48.578;11.574;2022-09-09T00:47:56;1.90;;;1.30;;
48002;SDS011;33768;48.578;11.574;2022-09-09T00:51:05;3.67;;;1.63;;
48002;SDS011;33768;48.578;11.574;2022-09-09T00:57:40;1.97;;;1.47;;
48002;SDS011;33768;48.578;11.574;2022-09-09T01:00:46;3.17;;;1.60;;
48002;SDS011;33768;48.578;11.574;2022-09-09T01:03:56;3.03;;;1.40;;
48002;SDS011;33768;48.578;11.574;2022-09-09T01:07:07;3.83;;;1.70;;
48002;SDS011;33768;48.578;11.574;2022-09-09T01:10:26;5.03;;;1.90;;
48002;SDS011;33768;48.578;11.574;2022-09-09T01:13:39;3.10;;;1.47;;
48002;SDS011;33768;48.578;11.574;2022-09-09T01:16:46;5.33;;;1.60;;
48002;SDS011;33768;48.578;11.574;2022-09-09T01:19:59;3.47;;;1.40;;
48002;SDS011;33768;48.578;11.574;2022-09-09T01:26:48;4.40;;;1.53;;
48002;SDS011;33768;48.578;11.574;2022-09-09T01:30:05;2.00;;;1.50;;
48002;SDS011;33768;48.578;11.574;2022-09-09T01:33:17;3.10;;;1.50;;
48002;SDS011;33768;48.578;11.574;2022-09-09T01:36:27;3.43;;;1.50;;
48002;SDS011;33768;48.578;11.574;2022-09-09T01:39:38;2.33;;;1.50;;
48002;SDS011;33768;48.578;11.574;2022-09-09T01:42:48;2.00;;;1.40;;
48002;SDS011;33768;48.578;11.574;2022-09-09T01:45:53;2.50;;;1.37;;
48002;SDS011;33768;48.578;11.574;2022-09-09T01:49:00;2.83;;;1.77;;
48002;SDS011;33768;48.578;11.574;2022-09-09T01:52:07;3.17;;;1.83;;
48002;SDS011;33768;48.578;11.574;2022-09-09T01:55:14;3.83;;;1.70;;
48002;SDS011;33768;48.578;11.574;2022-09-09T01:58:27;2.73;;;1.80;;
48002;SDS011;33768;48.578;11.574;2022-09-09T02:01:43;3.27;;;1.70;;
48002;SDS011;33768;48.578;11.574;2022-09-09T02:04:59;2.00;;;1.30;;
48002;SDS011;33768;48.578;11.574;2022-09-09T02:11:52;5.23;;;1.73;;
48002;SDS011;33768;48.578;11.574;2022-09-09T02:15:17;3.03;;;1.50;;
48002;SDS011;33768;48.578;11.574;2022-09-09T02:18:35;3.30;;;1.50;;
48002;SDS011;33768;48.578;11.574;2022-09-09T02:21:44;2.00;;;1.40;;
48002;SDS011;33768;48.578;11.574;2022-09-09T02:24:50;5.73;;;1.80;;
48002;SDS011;33768;48.578;11.574;2022-09-09T02:28:04;2.47;;;1.50;;
48002;SDS011;33768;48.578;11.574;2022-09-09T02:31:11;4.87;;;1.40;;
48002;SDS011;33768;48.578;11.574;2022-09-09T02:34:19;2.80;;;1.60;;
48002;SDS011;33768;48.578;11.574;2022-09-09T02:37:29;2.10;;;1.50;;
48002;SDS011;33768;48.578;11.574;2022-09-09T02:40:38;2.40;;;1.33;;
48002;SDS011;33768;48.578;11.574;2022-09-09T02:43:42;1.70;;;1.53;;
48002;SDS011;33768;48.578;11.574;2022-09-09T02:47:00;4.70;;;1.83;;
48002;SDS011;33768;48.578;11.574;2022-09-09T02:50:22;1.93;;;1.33;;
48002;SDS011;33768;48.578;11.574;2022-09-09T02:53:41;5.57;;;1.50;;
48002;SDS011;33768;48.578;11.574;2022-09-09T02:56:53;5.73;;;1.70;;
48002;SDS011;33768;48.578;11.574;2022-09-09T03:00:02;4.00;;;1.40;;
48002;SDS011;33768;48.578;11.574;2022-09-09T03:03:10;3.50;;;1.40;;
48002;SDS011;33768;48.578;11.574;2022-09-09T03:06:15;3.40;;;1.50;;
48002;SDS011;33768;48.578;11.574;2022-09-09T03:09:21;2.30;;;1.27;;
48002;SDS011;33768;48.578;11.574;2022-09-09T03:12:27;2.33;;;1.40;;
48002;SDS011;33768;48.578;11.574;2022-09-09T03:15:32;2.27;;;1.40;;
48002;SDS011;33768;48.578;11.574;2022-09-09T03:18:36;4.60;;;1.60;;
48002;SDS011;33768;48.578;11.574;2022-09-09T03:21:41;3.57;;;1.57;;
48002;SDS011;33768;48.578;11.574;2022-09-09T03:24:45;4.93;;;1.90;;
48002;SDS011;33768;48.578;11.574;2022-09-09T03:27:51;5.30;;;1.60;;
48002;SDS011;33768;48.578;11.574;2022-09-09T03:30:59;3.93;;;1.60;;
48002;SDS011;33768;48.578;11.574;2022-09-09T03:34:06;3.37;;;2.00;;
48002;SDS011;33768;48.578;11.574;2022-09-09T03:37:13;2.03;;;1.30;;
48002;SDS011;33768;48.578;11.574;2022-09-09T03:40:17;3.17;;;1.60;;
48002;SDS011;33768;48.578;11.574;2022-09-09T03:43:24;2.20;;;1.50;;
48002;SDS011;33768;48.578;11.574;2022-09-09T03:46:30;3.43;;;1.73;;
48002;SDS011;33768;48.578;11.574;2022-09-09T03:49:36;4.47;;;1.57;;
48002;SDS011;33768;48.578;11.574;2022-09-09T03:52:41;3.90;;;1.73;;
48002;SDS011;33768;48.578;11.574;2022-09-09T03:55:53;3.00;;;1.57;;
48002;SDS011;33768;48.578;11.574;2022-09-09T03:59:00;3.00;;;1.73;;
48002;SDS011;33768;48.578;11.574;2022-09-09T04:02:05;3.43;;;1.83;;
48002;SDS011;33768;48.578;11.574;2022-09-09T04:05:09;3.90;;;2.03;;
48002;SDS011;33768;48.578;11.574;2022-09-09T04:08:16;2.63;;;1.70;;
48002;SDS011;33768;48.578;11.574;2022-09-09T04:11:20;2.97;;;1.70;;
48002;SDS011;33768;48.578;11.574;2022-09-09T04:14:28;7.87;;;1.70;;
48002;SDS011;33768;48.578;11.574;2022-09-09T04:17:32;3.60;;;1.80;;
48002;SDS011;33768;48.578;11.574;2022-09-09T04:20:36;5.93;;;1.90;;
48002;SDS011;33768;48.578;11.574;2022-09-09T04:23:42;4.73;;;2.03;;
48002;SDS011;33768;48.578;11.574;2022-09-09T04:26:47;4.53;;;1.80;;
48002;SDS011;33768;48.578;11.574;2022-09-09T04:29:51;3.33;;;1.77;;
48002;SDS011;33768;48.578;11.574;2022-09-09T04:32:54;4.47;;;1.73;;
48002;SDS011;33768;48.578;11.574;2022-09-09T04:36:00;6.30;;;2.00;;
48002;SDS011;33768;48.578;11.574;2022-09-09T04:39:05;4.43;;;1.90;;
48002;SDS011;33768;48.578;11.574;2022-09-09T04:42:10;4.17;;;2.10;;
48002;SDS011;33768;48.578;11.574;2022-09-09T04:45:14;5.53;;;2.10;;
48002;SDS011;33768;48.578;11.574;2022-09-09T04:48:19;3.10;;;2.00;;
48002;SDS011;33768;48.578;11.574;2022-09-09T04:51:24;4.60;;;2.37;;
48002;SDS011;33768;48.578;11.574;2022-09-09T04:54:29;4.50;;;2.30;;
48002;SDS011;33768;48.578;11.574;2022-09-09T04:57:34;3.47;;;2.10;;
48002;SDS011;33768;48.578;11.574;2022-09-09T05:00:38;4.83;;;2.20;;
48002;SDS011;33768;48.578;11.574;2022-09-09T05:03:45;3.03;;;2.00;;
48002;SDS011;33768;48.578;11.574;2022-09-09T05:06:51;3.97;;;2.10;;
48002;SDS011;33768;48.578;11.574;2022-09-09T05:09:55;5.43;;;2.27;;
48002;SDS011;33768;48.578;11.574;2022-09-09T05:12:59;9.67;;;2.40;;
48002;SDS011;33768;48.578;11.574;2022-09-09T05:16:06;7.30;;;2.83;;
48002;SDS011;33768;48.578;11.574;2022-09-09T05:19:11;6.07;;;2.93;;
48002;SDS011;33768;48.578;11.574;2022-09-09T05:22:21;4.70;;;2.17;;
48002;SDS011;33768;48.578;11.574;2022-09-09T05:25:27;3.37;;;2.33;;
48002;SDS011;33768;48.578;11.574;2022-09-09T05:28:36;7.10;;;2.40;;
48002;SDS011;33768;48.578;11.574;2022-09-09T05:31:40;3.37;;;1.90;;
48002;SDS011;33768;48.578;11.574;2022-09-09T05:34:48;17.87;;;4.03;;
48002;SDS011;33768;48.578;11.574;2022-09-09T05:37:54;14.80;;;4.43;;
48002;SDS011;33768;48.578;11.574;2022-09-09T05:41:03;9.30;;;3.73;;
48002;SDS011;33768;48.578;11.574;2022-09-09T05:44:08;10.17;;;4.00;;
48002;SDS011;33768;48.578;11.574;2022-09-09T05:47:15;7.43;;;3.43;;
48002;SDS011;33768;48.578;11.574;2022-09-09T05:50:21;6.60;;;2.73;;
48002;SDS011;33768;48.578;11.574;2022-09-09T05:53:28;6.07;;;2.57;;
48002;SDS011;33768;48.578;11.574;2022-09-09T05:56:38;4.33;;;2.77;;
48002;SDS011;33768;48.578;11.574;2022-09-09T05:59:44;2.63;;;2.30;;
48002;SDS011;33768;48.578;11.574;2022-09-09T06:02:50;4.67;;;2.70;;
48002;SDS011;33768;48.578;11.574;2022-09-09T06:05:57;11.37;;;4.53;;
48002;SDS011;33768;48.578;11.574;2022-09-09T06:09:06;10.30;;;5.43;;
48002;SDS011;33768;48.578;11.574;2022-09-09T06:12:13;12.17;;;5.33;;
48002;SDS011;33768;48.578;11.574;2022-09-09T06:15:17;11.97;;;5.00;;
48002;SDS011;33768;48.578;11.574;2022-09-09T06:18:21;11.60;;;4.90;;
48002;SDS011;33768;48.578;11.574;2022-09-09T06:21:33;11.57;;;5.13;;
48002;SDS011;33768;48.578;11.574;2022-09-09T06:24:41;8.03;;;4.17;;
48002;SDS011;33768;48.578;11.574;2022-09-09T06:27:48;7.77;;;4.20;;
48002;SDS011;33768;48.578;11.574;2022-09-09T06:31:04;6.57;;;3.93;;
48002;SDS011;33768;48.578;11.574;2022-09-09T06:34:09;4.60;;;3.30;;
48002;SDS011;33768;48.578;11.574;2022-09-09T06:37:17;8.30;;;4.20;;
48002;SDS011;33768;48.578;11.574;2022-09-09T06:40:25;6.97;;;3.50;;
48002;SDS011;33768;48.578;11.574;2022-09-09T06:43:30;3.03;;;2.53;;
48002;SDS011;33768;48.578;11.574;2022-09-09T06:46:35;8.13;;;2.80;;
48002;SDS011;33768;48.578;11.574;2022-09-09T06:49:40;3.60;;;2.40;;
48002;SDS011;33768;48.578;11.574;2022-09-09T06:52:47;4.73;;;2.47;;
48002;SDS011;33768;48.578;11.574;2022-09-09T06:55:54;4.70;;;2.20;;
48002;SDS011;33768;48.578;11.574;2022-09-09T06:58:59;4.47;;;2.40;;
48002;SDS011;33768;48.578;11.574;2022-09-09T07:02:08;8.73;;;2.30;;
48002;SDS011;33768;48.578;11.574;2022-09-09T07:05:12;5.40;;;2.20;;
48002;SDS011;33768;48.578;11.574;2022-09-09T07:08:18;3.57;;;2.23;;
48002;SDS011;33768;48.578;11.574;2022-09-09T07:11:24;5.70;;;2.27;;
48002;SDS011;33768;48.578;11.574;2022-09-09T07:14:33;4.03;;;2.00;;
48002;SDS011;33768;48.578;11.574;2022-09-09T07:17:41;3.63;;;1.70;;
48002;SDS011;33768;48.578;11.574;2022-09-09T07:20:52;2.90;;;2.03;;
48002;SDS011;33768;48.578;11.574;2022-09-09T07:23:58;3.17;;;2.07;;
48002;SDS011;33768;48.578;11.574;2022-09-09T07:27:03;3.80;;;2.20;;
48002;SDS011;33768;48.578;11.574;2022-09-09T07:30:09;6.23;;;2.47;;
48002;SDS011;33768;48.578;11.574;2022-09-09T07:33:14;5.87;;;2.27;;
48002;SDS011;33768;48.578;11.574;2022-09-09T07:36:19;5.80;;;2.57;;
48002;SDS011;33768;48.578;11.574;2022-09-09T07:39:29;3.50;;;2.17;;
48002;SDS011;33768;48.578;11.574;2022-09-09T07:42:34;3.70;;;2.13;;
48002;SDS011;33768;48.578;11.574;2022-09-09T07:45:38;5.00;;;2.30;;
48002;SDS011;33768;48.578;11.574;2022-09-09T07:48:44;3.70;;;2.07;;
48002;SDS011;33768;48.578;11.574;2022-09-09T07:51:50;6.37;;;2.20;;
48002;SDS011;33768;48.578;11.574;2022-09-09T07:54:56;3.90;;;2.63;;
48002;SDS011;33768;48.578;11.574;2022-09-09T07:58:01;4.20;;;2.43;;
48002;SDS011;33768;48.578;11.574;2022-09-09T08:01:09;3.90;;;2.60;;
48002;SDS011;33768;48.578;11.574;2022-09-09T08:04:16;15.10;;;3.20;;
48002;SDS011;33768;48.578;11.574;2022-09-09T08:07:23;8.77;;;2.40;;
48002;SDS011;33768;48.578;11.574;2022-09-09T08:10:31;5.10;;;2.50;;
48002;SDS011;33768;48.578;11.574;2022-09-09T08:13:37;11.97;;;3.03;;
48002;SDS011;33768;48.578;11.574;2022-09-09T08:16:44;4.13;;;2.60;;
48002;SDS011;33768;48.578;11.574;2022-09-09T08:19:54;6.87;;;2.97;;
48002;SDS011;33768;48.578;11.574;2022-09-09T08:23:02;6.90;;;3.33;;
48002;SDS011;33768;48.578;11.574;2022-09-09T08:26:09;5.03;;;3.30;;
48002;SDS011;33768;48.578;11.574;2022-09-09T08:29:15;6.03;;;2.63;;
48002;SDS011;33768;48.578;11.574;2022-09-09T08:32:20;3.30;;;2.43;;
48002;SDS011;33768;48.578;11.574;2022-09-09T08:35:24;4.03;;;2.40;;
48002;SDS011;33768;48.578;11.574;2022-09-09T08:38:29;6.37;;;2.33;;
48002;SDS011;33768;48.578;11.574;2022-09-09T08:42:10;7.00;;;2.00;;
48002;SDS011;33768;48.578;11.574;2022-09-09T08:51:48;3.20;;;2.07;;
48002;SDS011;33768;48.578;11.574;2022-09-09T08:55:37;3.47;;;2.23;;
48002;SDS011;33768;48.578;11.574;2022-09-09T08:58:57;4.07;;;1.80;;
48002;SDS011;33768;48.578;11.574;2022-09-09T09:05:44;5.13;;;2.20;;
48002;SDS011;33768;48.578;11.574;2022-09-09T09:08:59;3.50;;;2.10;;
48002;SDS011;33768;48.578;11.574;2022-09-09T09:12:18;2.53;;;1.73;;
48002;SDS011;33768;48.578;11.574;2022-09-09T09:15:25;3.33;;;2.10;;
48002;SDS011;33768;48.578;11.574;2022-09-09T09:18:34;5.03;;;2.20;;
48002;SDS011;33768;48.578;11.574;2022-09-09T09:21:41;3.97;;;2.37;;
48002;SDS011;33768;48.578;11.574;2022-09-09T09:31:51;3.93;;;1.40;;
48002;SDS011;33768;48.578;11.574;2022-09-09T09:35:02;3.00;;;1.30;;
48002;SDS011;33768;48.578;11.574;2022-09-09T09:38:17;2.70;;;1.20;;
48002;SDS011;33768;48.578;11.574;2022-09-09T09:41:35;2.07;;;1.10;;
48002;SDS011;33768;48.578;11.574;2022-09-09T09:44:42;3.10;;;1.33;;
48002;SDS011;33768;48.578;11.574;2022-09-09T09:48:01;3.47;;;1.40;;
48002;SDS011;33768;48.578;11.574;2022-09-09T09:51:13;3.00;;;1.60;;
48002;SDS011;33768;48.578;11.574;2022-09-09T09:54:22;3.33;;;1.83;;
48002;SDS011;33768;48.578;11.574;2022-09-09T09:57:35;3.37;;;1.20;;
48002;SDS011;33768;48.578;11.574;2022-09-09T10:00:49;2.70;;;1.40;;
48002;SDS011;33768;48.578;11.574;2022-09-09T10:03:59;2.90;;;1.20;;
48002;SDS011;33768;48.578;11.574;2022-09-09T10:07:10;1.77;;;1.20;;
48002;SDS011;33768;48.578;11.574;2022-09-09T10:10:24;3.90;;;1.20;;
48002;SDS011;33768;48.578;11.574;2022-09-09T10:33:32;2.47;;;1.10;;
48002;SDS011;33768;48.578;11.574;2022-09-09T10:37:00;3.63;;;1.47;;
48002;SDS011;33768;48.578;11.574;2022-09-09T10:53:39;2.60;;;0.83;;
48002;SDS011;33768;48.578;11.574;2022-09-09T11:03:51;3.40;;;0.90;;
48002;SDS011;33768;48.578;11.574;2022-09-09T11:07:05;2.17;;;1.00;;
48002;SDS011;33768;48.578;11.574;2022-09-09T11:10:16;3.90;;;1.10;;
48002;SDS011;33768;48.578;11.574;2022-09-09T11:17:06;3.40;;;1.10;;
48002;SDS011;33768;48.578;11.574;2022-09-09T11:20:16;2.03;;;0.93;;
48002;SDS011;33768;48.578;11.574;2022-09-09T11:26:47;1.87;;;0.90;;
48002;SDS011;33768;48.578;11.574;2022-09-09T11:33:31;2.10;;;0.93;;
48002;SDS011;33768;48.578;11.574;2022-09-09T11:43:38;2.53;;;1.20;;
48002;SDS011;33768;48.578;11.574;2022-09-09T11:46:46;3.73;;;1.07;;
48002;SDS011;33768;48.578;11.574;2022-09-09T11:49:55;1.27;;;1.00;;
48002;SDS011;33768;48.578;11.574;2022-09-09T11:53:18;1.90;;;1.03;;
48002;SDS011;33768;48.578;11.574;2022-09-09T11:56:29;2.83;;;1.20;;
48002;SDS011;33768;48.578;11.574;2022-09-09T11:59:36;2.97;;;1.13;;
48002;SDS011;33768;48.578;11.574;2022-09-09T12:02:47;5.07;;;1.10;;
48002;SDS011;33768;48.578;11.574;2022-09-09T12:05:53;3.70;;;1.10;;
48002;SDS011;33768;48.578;11.574;2022-09-09T12:12:34;3.30;;;0.90;;
48002;SDS011;33768;48.578;11.574;2022-09-09T12:15:46;2.63;;;1.10;;
48002;SDS011;33768;48.578;11.574;2022-09-09T12:19:02;2.83;;;1.00;;
48002;SDS011;33768;48.578;11.574;2022-09-09T12:32:17;2.77;;;1.00;;
48002;SDS011;33768;48.578;11.574;2022-09-09T12:35:27;5.37;;;1.10;;
48002;SDS011;33768;48.578;11.574;2022-09-09T12:38:39;4.10;;;1.03;;
48002;SDS011;33768;48.578;11.574;2022-09-09T12:41:52;1.80;;;0.90;;
48002;SDS011;33768;48.578;11.574;2022-09-09T12:45:03;3.07;;;0.90;;
48002;SDS011;33768;48.578;11.574;2022-09-09T12:48:34;2.43;;;0.80;;
48002;SDS011;33768;48.578;11.574;2022-09-09T12:51:41;2.23;;;0.90;;
48002;SDS011;33768;48.578;11.574;2022-09-09T12:54:47;3.13;;;1.00;;
48002;SDS011;33768;48.578;11.574;2022-09-09T12:57:51;2.47;;;0.70;;
48002;SDS011;33768;48.578;11.574;2022-09-09T13:00:56;1.83;;;0.77;;
48002;SDS011;33768;48.578;11.574;2022-09-09T13:04:01;3.20;;;0.83;;
48002;SDS011;33768;48.578;11.574;2022-09-09T13:07:08;2.63;;;0.90;;
48002;SDS011;33768;48.578;11.574;2022-09-09T13:10:14;2.97;;;0.87;;
48002;SDS011;33768;48.578;11.574;2022-09-09T13:13:49;3.20;;;1.00;;
48002;SDS011;33768;48.578;11.574;2022-09-09T13:16:57;2.17;;;0.70;;
48002;SDS011;33768;48.578;11.574;2022-09-09T13:20:03;3.73;;;1.00;;
48002;SDS011;33768;48.578;11.574;2022-09-09T13:23:08;2.60;;;0.87;;
48002;SDS011;33768;48.578;11.574;2022-09-09T13:26:23;4.40;;;1.10;;
48002;SDS011;33768;48.578;11.574;2022-09-09T13:29:30;4.33;;;1.00;;
48002;SDS011;33768;48.578;11.574;2022-09-09T13:32:35;2.27;;;0.80;;
48002;SDS011;33768;48.578;11.574;2022-09-09T13:39:15;3.17;;;0.83;;
48002;SDS011;33768;48.578;11.574;2022-09-09T13:42:25;5.60;;;0.80;;
48002;SDS011;33768;48.578;11.574;2022-09-09T13:45:30;3.83;;;0.90;;
48002;SDS011;33768;48.578;11.574;2022-09-09T13:48:35;2.60;;;1.00;;
48002;SDS011;33768;48.578;11.574;2022-09-09T13:51:46;2.97;;;1.00;;
48002;SDS011;33768;48.578;11.574;2022-09-09T13:54:54;5.17;;;1.47;;
48002;SDS011;33768;48.578;11.574;2022-09-09T13:58:00;3.08;;;0.70;;
48002;SDS011;33768;48.578;11.574;2022-09-09T14:01:05;1.80;;;0.70;;
48002;SDS011;33768;48.578;11.574;2022-09-09T14:04:09;6.80;;;0.80;;
48002;SDS011;33768;48.578;11.574;2022-09-09T14:07:14;4.50;;;0.90;;
48002;SDS011;33768;48.578;11.574;2022-09-09T14:10:20;23.63;;;2.00;;
48002;SDS011;33768;48.578;11.574;2022-09-09T14:13:26;1.73;;;0.80;;
48002;SDS011;33768;48.578;11.574;2022-09-09T14:16:30;3.90;;;0.80;;
48002;SDS011;33768;48.578;11.574;2022-09-09T14:19:34;3.57;;;0.90;;
48002;SDS011;33768;48.578;11.574;2022-09-09T14:22:39;4.17;;;1.00;;
48002;SDS011;33768;48.578;11.574;2022-09-09T14:25:44;2.00;;;0.60;;
48002;SDS011;33768;48.578;11.574;2022-09-09T14:28:48;5.83;;;0.80;;
48002;SDS011;33768;48.578;11.574;2022-09-09T14:31:53;4.27;;;0.97;;
48002;SDS011;33768;48.578;11.574;2022-09-09T14:34:57;1.10;;;0.53;;
48002;SDS011;33768;48.578;11.574;2022-09-09T14:38:02;3.87;;;1.10;;
48002;SDS011;33768;48.578;11.574;2022-09-09T14:41:11;4.50;;;0.70;;
48002;SDS011;33768;48.578;11.574;2022-09-09T14:44:16;5.47;;;0.90;;
48002;SDS011;33768;48.578;11.574;2022-09-09T14:47:21;2.50;;;0.90;;
48002;SDS011;33768;48.578;11.574;2022-09-09T14:50:26;4.20;;;0.80;;
48002;SDS011;33768;48.578;11.574;2022-09-09T14:53:30;1.50;;;0.70;;
48002;SDS011;33768;48.578;11.574;2022-09-09T14:56:34;2.40;;;0.77;;
48002;SDS011;33768;48.578;11.574;2022-09-09T14:59:38;1.83;;;0.90;;
48002;SDS011;33768;48.578;11.574;2022-09-09T15:02:42;2.67;;;1.00;;
48002;SDS011;33768;48.578;11.574;2022-09-09T15:05:46;3.50;;;1.00;;
48002;SDS011;33768;48.578;11.574;2022-09-09T15:08:51;3.03;;;1.00;;
48002;SDS011;33768;48.578;11.574;2022-09-09T15:11:55;3.03;;;0.80;;
48002;SDS011;33768;48.578;11.574;2022-09-09T15:15:03;4.33;;;0.90;;
48002;SDS011;33768;48.578;11.574;2022-09-09T15:18:07;2.57;;;0.90;;
48002;SDS011;33768;48.578;11.574;2022-09-09T15:21:13;5.50;;;0.90;;
48002;SDS011;33768;48.578;11.574;2022-09-09T15:24:22;3.30;;;0.90;;
48002;SDS011;33768;48.578;11.574;2022-09-09T15:27:26;3.23;;;0.93;;
48002;SDS011;33768;48.578;11.574;2022-09-09T15:30:31;4.43;;;0.87;;
48002;SDS011;33768;48.578;11.574;2022-09-09T15:33:35;3.40;;;0.97;;
48002;SDS011;33768;48.578;11.574;2022-09-09T15:36:42;0.80;;;0.57;;
48002;SDS011;33768;48.578;11.574;2022-09-09T15:39:49;7.07;;;1.10;;
48002;SDS011;33768;48.578;11.574;2022-09-09T15:42:53;2.47;;;0.67;;
48002;SDS011;33768;48.578;11.574;2022-09-09T15:45:59;1.70;;;0.60;;
48002;SDS011;33768;48.578;11.574;2022-09-09T15:49:17;2.30;;;0.50;;
48002;SDS011;33768;48.578;11.574;2022-09-09T15:52:29;3.70;;;0.70;;
48002;SDS011;33768;48.578;11.574;2022-09-09T15:55:33;4.17;;;0.50;;
48002;SDS011;33768;48.578;11.574;2022-09-09T15:58:37;3.03;;;0.50;;
48002;SDS011;33768;48.578;11.574;2022-09-09T16:01:42;0.60;;;0.60;;
48002;SDS011;33768;48.578;11.574;2022-09-09T16:04:47;2.23;;;0.77;;
48002;SDS011;33768;48.578;11.574;2022-09-09T16:07:51;2.13;;;0.60;;
48002;SDS011;33768;48.578;11.574;2022-09-09T16:10:56;1.10;;;0.40;;
48002;SDS011;33768;48.578;11.574;2022-09-09T16:14:00;1.57;;;0.60;;
48002;SDS011;33768;48.578;11.574;2022-09-09T16:17:06;0.80;;;0.60;;
48002;SDS011;33768;48.578;11.574;2022-09-09T16:20:10;2.23;;;0.60;;
48002;SDS011;33768;48.578;11.574;2022-09-09T16:23:15;0.77;;;0.50;;
48002;SDS011;33768;48.578;11.574;2022-09-09T16:26:19;1.30;;;0.60;;
48002;SDS011;33768;48.578;11.574;2022-09-09T16:29:24;3.87;;;0.63;;
48002;SDS011;33768;48.578;11.574;2022-09-09T16:32:31;1.53;;;0.50;;
48002;SDS011;33768;48.578;11.574;2022-09-09T16:35:38;0.90;;;0.60;;
48002;SDS011;33768;48.578;11.574;2022-09-09T16:38:42;5.03;;;1.07;;
48002;SDS011;33768;48.578;11.574;2022-09-09T16:41:47;1.53;;;0.70;;
48002;SDS011;33768;48.578;11.574;2022-09-09T16:44:52;1.60;;;0.80;;
48002;SDS011;33768;48.578;11.574;2022-09-09T16:47:56;0.83;;;0.60;;
48002;SDS011;33768;48.578;11.574;2022-09-09T16:51:04;2.47;;;0.63;;
48002;SDS011;33768;48.578;11.574;2022-09-09T16:54:10;2.73;;;0.90;;
48002;SDS011;33768;48.578;11.574;2022-09-09T16:57:17;3.23;;;1.00;;
48002;SDS011;33768;48.578;11.574;2022-09-09T17:00:21;1.80;;;0.63;;
48002;SDS011;33768;48.578;11.574;2022-09-09T17:03:27;1.57;;;0.87;;
48002;SDS011;33768;48.578;11.574;2022-09-09T17:06:31;0.80;;;0.70;;
48002;SDS011;33768;48.578;11.574;2022-09-09T17:09:42;1.33;;;0.67;;
48002;SDS011;33768;48.578;11.574;2022-09-09T17:12:46;4.00;;;1.00;;
48002;SDS011;33768;48.578;11.574;2022-09-09T17:15:50;2.17;;;1.10;;
48002;SDS011;33768;48.578;11.574;2022-09-09T17:18:55;4.73;;;1.00;;
48002;SDS011;33768;48.578;11.574;2022-09-09T17:22:01;2.53;;;0.70;;
48002;SDS011;33768;48.578;11.574;2022-09-09T17:25:05;2.50;;;1.00;;
48002;SDS011;33768;48.578;11.574;2022-09-09T17:28:10;1.37;;;0.83;;
48002;SDS011;33768;48.578;11.574;2022-09-09T17:31:15;2.00;;;1.03;;
48002;SDS011;33768;48.578;11.574;2022-09-09T17:34:20;4.53;;;1.10;;
48002;SDS011;33768;48.578;11.574;2022-09-09T17:37:24;3.03;;;1.00;;
48002;SDS011;33768;48.578;11.574;2022-09-09T17:40:29;4.03;;;1.10;;
48002;SDS011;33768;48.578;11.574;2022-09-09T17:43:33;2.97;;;0.90;;
48002;SDS011;33768;48.578;11.574;2022-09-09T17:46:38;6.67;;;1.00;;
48002;SDS011;33768;48.578;11.574;2022-09-09T17:49:44;2.90;;;1.30;;
48002;SDS011;33768;48.578;11.574;2022-09-09T17:52:48;6.13;;;1.17;;
48002;SDS011;33768;48.578;11.574;2022-09-09T17:55:52;5.20;;;1.20;;
48002;SDS011;33768;48.578;11.574;2022-09-09T17:58:57;2.83;;;1.33;;
48002;SDS011;33768;48.578;11.574;2022-09-09T18:02:02;3.23;;;1.10;;
48002;SDS011;33768;48.578;11.574;2022-09-09T18:05:08;4.20;;;1.30;;
48002;SDS011;33768;48.578;11.574;2022-09-09T18:08:12;3.20;;;1.33;;
48002;SDS011;33768;48.578;11.574;2022-09-09T18:11:17;3.43;;;1.43;;
48002;SDS011;33768;48.578;11.574;2022-09-09T18:14:28;6.90;;;1.63;;
48002;SDS011;33768;48.578;11.574;2022-09-09T18:17:33;4.13;;;1.60;;
48002;SDS011;33768;48.578;11.574;2022-09-09T18:20:38;4.53;;;1.73;;
48002;SDS011;33768;48.578;11.574;2022-09-09T18:23:43;4.97;;;1.50;;
48002;SDS011;33768;48.578;11.574;2022-09-09T18:26:55;3.23;;;1.20;;
48002;SDS011;33768;48.578;11.574;2022-09-09T18:29:59;2.47;;;1.10;;
48002;SDS011;33768;48.578;11.574;2022-09-09T18:33:03;2.40;;;1.37;;
48002;SDS011;33768;48.578;11.574;2022-09-09T18:36:09;5.07;;;1.10;;
48002;SDS011;33768;48.578;11.574;2022-09-09T18:39:16;5.80;;;1.33;;
48002;SDS011;33768;48.578;11.574;2022-09-09T18:42:20;3.30;;;1.00;;
48002;SDS011;33768;48.578;11.574;2022-09-09T18:45:25;6.53;;;1.10;;
48002;SDS011;33768;48.578;11.574;2022-09-09T18:48:31;3.57;;;1.47;;
48002;SDS011;33768;48.578;11.574;2022-09-09T18:51:36;2.77;;;1.20;;
48002;SDS011;33768;48.578;11.574;2022-09-09T18:54:43;3.37;;;1.40;;
48002;SDS011;33768;48.578;11.574;2022-09-09T18:57:49;5.77;;;1.63;;
48002;SDS011;33768;48.578;11.574;2022-09-09T19:00:53;7.40;;;1.50;;
48002;SDS011;33768;48.578;11.574;2022-09-09T19:03:59;2.10;;;1.40;;
48002;SDS011;33768;48.578;11.574;2022-09-09T19:07:04;4.77;;;1.50;;
48002;SDS011;33768;48.578;11.574;2022-09-09T19:10:08;2.03;;;1.10;;
48002;SDS011;33768;48.578;11.574;2022-09-09T19:13:13;3.23;;;1.10;;
48002;SDS011;33768;48.578;11.574;2022-09-09T19:16:18;4.63;;;0.90;;
48002;SDS011;33768;48.578;11.574;2022-09-09T19:19:25;7.10;;;1.10;;
48002;SDS011;33768;48.578;11.574;2022-09-09T19:22:33;2.77;;;1.27;;
48002;SDS011;33768;48.578;11.574;2022-09-09T19:25:37;1.93;;;0.90;;
48002;SDS011;33768;48.578;11.574;2022-09-09T19:28:42;5.63;;;1.00;;
48002;SDS011;33768;48.578;11.574;2022-09-09T19:31:49;3.43;;;0.97;;
48002;SDS011;33768;48.578;11.574;2022-09-09T19:34:55;1.27;;;0.77;;
48002;SDS011;33768;48.578;11.574;2022-09-09T19:37:59;2.73;;;0.97;;
48002;SDS011;33768;48.578;11.574;2022-09-09T19:41:05;2.03;;;1.00;;
48002;SDS011;33768;48.578;11.574;2022-09-09T19:44:15;1.90;;;0.93;;
48002;SDS011;33768;48.578;11.574;2022-09-09T19:47:20;1.40;;;0.90;;
48002;SDS011;33768;48.578;11.574;2022-09-09T19:50:27;2.13;;;0.90;;
48002;SDS011;33768;48.578;11.574;2022-09-09T19:53:32;1.77;;;1.10;;
48002;SDS011;33768;48.578;11.574;2022-09-09T19:56:40;1.90;;;0.90;;
48002;SDS011;33768;48.578;11.574;2022-09-09T19:59:45;3.57;;;1.10;;
48002;SDS011;33768;48.578;11.574;2022-09-09T20:02:50;1.47;;;1.03;;
48002;SDS011;33768;48.578;11.574;2022-09-09T20:05:54;2.33;;;0.87;;
48002;SDS011;33768;48.578;11.574;2022-09-09T20:09:00;2.00;;;0.80;;
48002;SDS011;33768;48.578;11.574;2022-09-09T20:12:04;2.07;;;0.83;;
48002;SDS011;33768;48.578;11.574;2022-09-09T20:15:09;0.70;;;0.70;;
48002;SDS011;33768;48.578;11.574;2022-09-09T20:18:13;1.43;;;0.97;;
48002;SDS011;33768;48.578;11.574;2022-09-09T20:21:22;2.40;;;0.80;;
48002;SDS011;33768;48.578;11.574;2022-09-09T20:24:32;2.87;;;0.90;;
48002;SDS011;33768;48.578;11.574;2022-09-09T20:27:36;2.57;;;0.90;;
48002;SDS011;33768;48.578;11.574;2022-09-09T20:30:40;4.10;;;1.23;;
48002;SDS011;33768;48.578;11.574;2022-09-09T20:33:45;2.67;;;0.90;;